createdAt,value
2019-05-22T00:00:55.094Z,10.63
2019-05-22T00:01:55.074Z,10.63
2019-05-22T00:02:55.063Z,10.60
2019-05-22T00:03:55.075Z,10.60
2019-05-22T00:04:55.053Z,10.60
2019-05-22T00:05:55.037Z,10.62
2019-05-22T00:06:55.020Z,10.62
2019-05-22T00:07:55.017Z,10.60
2019-05-22T00:08:55.006Z,10.58
2019-05-22T00:09:55.014Z,10.58
2019-05-22T00:10:55.038Z,10.58
2019-05-22T00:11:54.963Z,10.58
2019-05-22T00:12:54.964Z,10.58
2019-05-22T00:13:54.951Z,10.58
2019-05-22T00:14:54.959Z,10.58
2019-05-22T00:15:54.916Z,10.56
2019-05-22T00:16:54.913Z,10.56
2019-05-22T00:17:54.908Z,10.58
2019-05-22T00:18:54.883Z,10.58
2019-05-22T00:19:54.901Z,10.58
2019-05-22T00:20:54.873Z,10.56
2019-05-22T00:21:54.853Z,10.56
2019-05-22T00:22:54.898Z,10.55
2019-05-22T00:23:54.835Z,10.56
2019-05-22T00:24:54.847Z,10.56
2019-05-22T00:25:54.814Z,10.56
2019-05-22T00:26:54.804Z,10.58
2019-05-22T00:27:54.792Z,10.58
2019-05-22T00:28:54.781Z,10.56
2019-05-22T00:29:54.804Z,10.56
2019-05-22T00:30:54.747Z,10.56
2019-05-22T00:31:54.748Z,10.58
2019-05-22T00:32:54.741Z,10.56
2019-05-22T00:33:54.739Z,10.56
2019-05-22T00:34:54.735Z,10.56
2019-05-22T00:35:54.742Z,10.56
2019-05-22T00:36:54.681Z,10.55
2019-05-22T00:37:54.671Z,10.56
2019-05-22T00:38:54.663Z,10.56
2019-05-22T00:39:54.651Z,10.56
2019-05-22T00:40:54.651Z,10.55
2019-05-22T00:41:54.641Z,10.56
2019-05-22T00:43:04.029Z,10.56
2019-05-22T00:43:55.613Z,10.58
2019-05-22T00:44:54.621Z,10.56
2019-05-22T00:45:54.610Z,10.55
2019-05-22T00:46:54.571Z,10.53
2019-05-22T00:47:54.571Z,10.53
2019-05-22T00:48:54.551Z,10.55
2019-05-22T00:49:54.604Z,10.55
2019-05-22T00:50:54.655Z,10.55
2019-05-22T00:51:54.539Z,10.53
2019-05-22T00:52:54.512Z,10.53
2019-05-22T00:53:54.740Z,10.53
2019-05-22T00:54:54.522Z,10.53
2019-05-22T00:55:54.500Z,10.53
2019-05-22T00:56:54.540Z,10.55
2019-05-22T00:57:54.490Z,10.52
2019-05-22T00:58:54.448Z,10.55
2019-05-22T00:59:54.457Z,10.53
2019-05-22T01:00:54.439Z,10.53
2019-05-22T01:01:54.417Z,10.55
2019-05-22T01:02:54.403Z,10.53
2019-05-22T01:03:54.408Z,10.52
2019-05-22T01:04:54.384Z,10.53
2019-05-22T01:05:54.390Z,10.52
2019-05-22T01:06:54.352Z,10.53
2019-05-22T01:07:54.350Z,10.52
2019-05-22T01:08:54.330Z,10.53
2019-05-22T01:09:54.323Z,10.55
2019-05-22T01:10:54.330Z,10.53
2019-05-22T01:11:54.301Z,10.52
2019-05-22T01:12:54.312Z,10.53
2019-05-22T01:13:54.279Z,10.53
2019-05-22T01:14:54.279Z,10.52
2019-05-22T01:15:54.297Z,10.52
2019-05-22T01:16:54.261Z,10.52
2019-05-22T01:17:54.238Z,10.51
2019-05-22T01:18:54.233Z,10.52
2019-05-22T01:19:54.211Z,10.52
2019-05-22T01:20:54.199Z,10.51
2019-05-22T01:21:54.225Z,10.51
2019-05-22T01:22:54.179Z,10.51
2019-05-22T01:23:54.160Z,10.52
2019-05-22T01:24:54.159Z,10.52
2019-05-22T01:25:54.253Z,10.51
2019-05-22T01:26:54.151Z,10.52
2019-05-22T01:27:54.121Z,10.51
2019-05-22T01:28:54.111Z,10.47
2019-05-22T01:29:54.110Z,10.52
2019-05-22T01:30:54.156Z,10.51
2019-05-22T01:31:55.759Z,10.52
2019-05-22T01:32:54.074Z,10.47
2019-05-22T01:33:54.057Z,10.52
2019-05-22T01:34:54.061Z,10.51
2019-05-22T01:35:54.179Z,10.51
2019-05-22T01:36:54.155Z,10.52
2019-05-22T01:37:54.037Z,10.52
2019-05-22T01:38:54.003Z,10.47
2019-05-22T01:39:54.001Z,10.47
2019-05-22T01:40:53.974Z,10.46
2019-05-22T01:41:53.985Z,10.46
2019-05-22T01:42:53.958Z,10.47
2019-05-22T01:43:53.951Z,10.47
2019-05-22T01:45:03.156Z,10.46
2019-05-22T01:45:54.925Z,10.46
2019-05-22T01:46:53.930Z,10.47
2019-05-22T01:47:53.921Z,10.47
2019-05-22T01:48:53.894Z,10.51
2019-05-22T01:49:53.889Z,10.51
2019-05-22T01:50:53.863Z,10.51
2019-05-22T01:51:53.859Z,10.51
2019-05-22T01:52:53.874Z,10.51
2019-05-22T01:53:54.041Z,10.51
2019-05-22T01:54:53.825Z,10.47
2019-05-22T01:55:53.827Z,10.47
2019-05-22T01:56:53.801Z,10.47
2019-05-22T01:57:53.813Z,10.47
2019-05-22T01:58:53.782Z,10.47
2019-05-22T01:59:53.770Z,10.51
2019-05-22T02:00:53.763Z,10.51
2019-05-22T02:01:53.745Z,10.47
2019-05-22T02:02:53.758Z,10.51
2019-05-22T02:03:53.719Z,10.47
2019-05-22T02:04:53.720Z,10.47
2019-05-22T02:05:53.713Z,10.47
2019-05-22T02:06:53.698Z,10.47
2019-05-22T02:07:53.704Z,10.46
2019-05-22T02:08:53.683Z,10.44
2019-05-22T02:09:53.662Z,10.44
2019-05-22T02:10:53.654Z,10.44
2019-05-22T02:11:53.647Z,10.46
2019-05-22T02:12:53.654Z,10.47
2019-05-22T02:13:53.612Z,10.46
2019-05-22T02:14:53.599Z,10.51
2019-05-22T02:15:53.590Z,10.51
2019-05-22T02:16:56.723Z,10.51
2019-05-22T02:17:56.488Z,10.51
2019-05-22T02:18:53.569Z,10.51
2019-05-22T02:19:53.539Z,10.51
2019-05-22T02:20:53.542Z,10.47
2019-05-22T02:21:53.527Z,10.47
2019-05-22T02:22:53.540Z,10.47
2019-05-22T02:23:53.534Z,10.51
2019-05-22T02:24:53.520Z,10.47
2019-05-22T02:25:53.498Z,10.46
2019-05-22T02:26:53.481Z,10.46
2019-05-22T02:27:53.481Z,10.47
2019-05-22T02:28:53.475Z,10.47
2019-05-22T02:29:53.439Z,10.47
2019-05-22T02:30:53.428Z,10.46
2019-05-22T02:31:55.485Z,10.47
2019-05-22T02:32:53.486Z,10.46
2019-05-22T02:33:53.410Z,10.47
2019-05-22T02:34:53.383Z,10.47
2019-05-22T02:35:53.379Z,10.46
2019-05-22T02:36:53.387Z,10.47
2019-05-22T02:37:53.369Z,10.51
2019-05-22T02:38:53.339Z,10.51
2019-05-22T02:39:53.339Z,10.52
2019-05-22T02:40:53.321Z,10.47
2019-05-22T02:41:53.315Z,10.51
2019-05-22T02:42:53.320Z,10.51
2019-05-22T02:43:53.288Z,10.51
2019-05-22T02:44:53.295Z,10.51
2019-05-22T02:45:53.261Z,10.51
2019-05-22T02:46:53.264Z,10.47
2019-05-22T02:47:53.259Z,10.51
2019-05-22T02:48:53.232Z,10.51
2019-05-22T02:49:53.210Z,10.51
2019-05-22T02:50:53.220Z,10.52
2019-05-22T02:51:53.211Z,10.51
2019-05-22T02:52:53.220Z,10.51
2019-05-22T02:53:53.180Z,10.51
2019-05-22T02:54:53.169Z,10.47
2019-05-22T02:55:53.168Z,10.47
2019-05-22T02:56:53.195Z,10.51
2019-05-22T02:57:53.160Z,10.51
2019-05-22T02:58:53.129Z,10.51
2019-05-22T02:59:53.119Z,10.46
2019-05-22T03:00:53.092Z,10.51
2019-05-22T03:01:53.150Z,10.46
2019-05-22T03:02:53.129Z,10.47
2019-05-22T03:03:53.091Z,10.47
2019-05-22T03:04:53.061Z,10.51
2019-05-22T03:05:53.106Z,10.47
2019-05-22T03:06:53.081Z,10.47
2019-05-22T03:07:53.040Z,10.46
2019-05-22T03:08:53.009Z,10.46
2019-05-22T03:09:53.003Z,10.44
2019-05-22T03:10:52.991Z,10.44
2019-05-22T03:11:52.975Z,10.44
2019-05-22T03:12:52.980Z,10.47
2019-05-22T03:13:52.961Z,10.47
2019-05-22T03:14:53.020Z,10.47
2019-05-22T03:15:52.949Z,10.46
2019-05-22T03:16:53.053Z,10.46
2019-05-22T03:17:52.956Z,10.46
2019-05-22T03:19:07.805Z,10.46
2019-05-22T03:19:53.885Z,10.44
2019-05-22T03:20:52.935Z,10.44
2019-05-22T03:21:52.877Z,10.46
2019-05-22T03:22:52.898Z,10.46
2019-05-22T03:23:52.848Z,10.46
2019-05-22T03:24:52.839Z,10.47
2019-05-22T03:25:52.831Z,10.46
2019-05-22T03:26:52.835Z,10.46
2019-05-22T03:27:52.843Z,10.47
2019-05-22T03:28:52.789Z,10.47
2019-05-22T03:29:52.810Z,10.46
2019-05-22T03:30:52.789Z,10.46
2019-05-22T03:31:52.759Z,10.44
2019-05-22T03:32:52.769Z,10.46
2019-05-22T03:33:52.762Z,10.44
2019-05-22T03:34:52.728Z,10.43
2019-05-22T03:35:52.754Z,10.44
2019-05-22T03:36:52.706Z,10.43
2019-05-22T03:37:52.685Z,10.44
2019-05-22T03:38:52.724Z,10.44
2019-05-22T03:39:52.667Z,10.44
2019-05-22T03:40:52.712Z,10.44
2019-05-22T03:41:52.640Z,10.43
2019-05-22T03:42:52.629Z,10.43
2019-05-22T03:43:52.620Z,10.44
2019-05-22T03:44:52.627Z,10.44
2019-05-22T03:45:52.618Z,10.43
2019-05-22T03:46:52.596Z,10.43
2019-05-22T03:47:52.609Z,10.43
2019-05-22T03:48:52.567Z,10.43
2019-05-22T03:49:52.555Z,10.43
2019-05-22T03:50:52.572Z,10.42
2019-05-22T03:51:52.622Z,10.43
2019-05-22T03:52:52.525Z,10.44
2019-05-22T03:53:52.512Z,10.44
2019-05-22T03:54:52.510Z,10.44
2019-05-22T03:55:52.517Z,10.46
2019-05-22T03:56:52.476Z,10.46
2019-05-22T03:57:52.467Z,10.44
2019-05-22T03:58:52.465Z,10.42
2019-05-22T03:59:52.455Z,10.43
2019-05-22T04:00:52.480Z,10.44
2019-05-22T04:01:52.428Z,10.44
2019-05-22T04:02:52.424Z,10.43
2019-05-22T04:03:52.399Z,10.43
2019-05-22T04:04:52.394Z,10.44
2019-05-22T04:05:52.402Z,10.44
2019-05-22T04:06:52.371Z,10.43
2019-05-22T04:07:52.356Z,10.43
2019-05-22T04:08:52.339Z,10.43
2019-05-22T04:09:52.375Z,10.43
2019-05-22T04:10:52.346Z,10.43
2019-05-22T04:11:52.328Z,10.44
2019-05-22T04:12:52.300Z,10.46
2019-05-22T04:13:52.298Z,10.44
2019-05-22T04:14:52.279Z,10.46
2019-05-22T04:15:52.295Z,10.47
2019-05-22T04:16:52.280Z,10.51
2019-05-22T04:17:52.249Z,10.51
2019-05-22T04:18:52.228Z,10.51
2019-05-22T04:19:52.241Z,10.46
2019-05-22T04:20:52.270Z,10.46
2019-05-22T04:21:52.219Z,10.47
2019-05-22T04:22:52.191Z,10.47
2019-05-22T04:23:52.188Z,10.51
2019-05-22T04:24:52.169Z,10.47
2019-05-22T04:25:53.481Z,10.47
2019-05-22T04:26:52.164Z,10.46
2019-05-22T04:27:52.157Z,10.44
2019-05-22T04:28:52.151Z,10.46
2019-05-22T04:29:52.125Z,10.46
2019-05-22T04:30:52.109Z,10.47
2019-05-22T04:31:52.108Z,10.47
2019-05-22T04:32:52.079Z,10.51
2019-05-22T04:33:52.089Z,10.51
2019-05-22T04:34:52.058Z,10.51
2019-05-22T04:35:52.057Z,10.52
2019-05-22T04:36:52.062Z,10.52
2019-05-22T04:37:52.029Z,10.52
2019-05-22T04:38:52.058Z,10.52
2019-05-22T04:39:52.030Z,10.51
2019-05-22T04:40:52.117Z,10.47
2019-05-22T04:41:52.012Z,10.51
2019-05-22T04:42:51.972Z,10.51
2019-05-22T04:43:51.970Z,10.51
2019-05-22T04:44:51.947Z,10.51
2019-05-22T04:45:51.958Z,10.52
2019-05-22T04:46:52.017Z,10.52
2019-05-22T04:47:51.914Z,10.53
2019-05-22T04:48:51.953Z,10.53
2019-05-22T04:50:06.218Z,10.52
2019-05-22T04:50:52.884Z,10.52
2019-05-22T04:51:51.903Z,10.52
2019-05-22T04:52:51.897Z,10.51
2019-05-22T04:53:51.849Z,10.47
2019-05-22T04:54:52.564Z,10.51
2019-05-22T04:55:51.830Z,10.47
2019-05-22T04:56:51.842Z,10.52
2019-05-22T04:57:51.806Z,10.52
2019-05-22T04:58:51.799Z,10.53
2019-05-22T04:59:51.819Z,10.53
2019-05-22T05:00:51.766Z,10.53
2019-05-22T05:01:51.784Z,10.51
2019-05-22T05:02:51.751Z,10.53
2019-05-22T05:03:51.736Z,10.53
2019-05-22T05:04:51.726Z,10.51
2019-05-22T05:05:51.758Z,10.52
2019-05-22T05:06:51.711Z,10.53
2019-05-22T05:07:51.689Z,10.53
2019-05-22T05:08:51.685Z,10.53
2019-05-22T05:09:51.675Z,10.55
2019-05-22T05:10:51.674Z,10.56
2019-05-22T05:11:51.664Z,10.53
2019-05-22T05:12:51.635Z,10.56
2019-05-22T05:13:51.635Z,10.56
2019-05-22T05:14:51.622Z,10.55
2019-05-22T05:15:51.604Z,10.56
2019-05-22T05:16:51.617Z,10.56
2019-05-22T05:17:51.575Z,10.56
2019-05-22T05:18:51.574Z,10.58
2019-05-22T05:19:51.566Z,10.59
2019-05-22T05:20:51.594Z,10.59
2019-05-22T05:21:51.554Z,10.60
2019-05-22T05:22:51.574Z,10.63
2019-05-22T05:23:51.515Z,10.63
2019-05-22T05:24:51.495Z,10.66
2019-05-22T05:25:51.484Z,10.68
2019-05-22T05:26:51.527Z,10.68
2019-05-22T05:27:51.521Z,10.70
2019-05-22T05:28:51.549Z,10.71
2019-05-22T05:29:51.456Z,10.71
2019-05-22T05:30:51.487Z,10.73
2019-05-22T05:31:51.491Z,10.74
2019-05-22T05:32:51.578Z,10.76
2019-05-22T05:33:51.407Z,10.76
2019-05-22T05:34:51.430Z,10.76
2019-05-22T05:35:51.394Z,10.76
2019-05-22T05:36:51.398Z,10.76
2019-05-22T05:37:51.394Z,10.74
2019-05-22T05:38:51.403Z,10.74
2019-05-22T05:39:51.336Z,10.76
2019-05-22T05:40:51.351Z,10.76
2019-05-22T05:41:51.314Z,10.76
2019-05-22T05:42:51.323Z,10.76
2019-05-22T05:43:51.313Z,10.76
2019-05-22T05:44:51.294Z,10.74
2019-05-22T05:45:51.284Z,10.77
2019-05-22T05:46:51.264Z,10.77
2019-05-22T05:47:51.264Z,10.78
2019-05-22T05:48:51.254Z,10.80
2019-05-22T05:49:51.291Z,10.80
2019-05-22T05:50:51.223Z,10.80
2019-05-22T05:51:51.312Z,10.81
2019-05-22T05:52:51.238Z,10.78
2019-05-22T05:53:51.280Z,10.80
2019-05-22T05:54:51.208Z,10.78
2019-05-22T05:55:51.177Z,10.77
2019-05-22T05:56:51.158Z,10.77
2019-05-22T05:57:51.145Z,10.78
2019-05-22T05:58:51.146Z,10.80
2019-05-22T05:59:51.132Z,10.78
2019-05-22T06:00:51.195Z,10.78
2019-05-22T06:01:51.115Z,10.76
2019-05-22T06:02:56.478Z,10.76
2019-05-22T06:03:52.123Z,10.77
2019-05-22T06:04:51.091Z,10.77
2019-05-22T06:05:51.072Z,10.74
2019-05-22T06:06:51.232Z,10.76
2019-05-22T06:07:51.027Z,10.76
2019-05-22T06:08:51.024Z,10.77
2019-05-22T06:09:51.024Z,10.77
2019-05-22T06:10:50.992Z,10.78
2019-05-22T06:11:50.982Z,10.78
2019-05-22T06:12:50.985Z,10.81
2019-05-22T06:13:50.962Z,10.80
2019-05-22T06:14:50.978Z,10.78
2019-05-22T06:15:50.944Z,10.78
2019-05-22T06:16:50.933Z,10.81
2019-05-22T06:17:50.922Z,10.81
2019-05-22T06:18:50.902Z,10.81
2019-05-22T06:19:50.935Z,10.83
2019-05-22T06:21:03.318Z,10.84
2019-05-22T06:21:51.883Z,10.84
2019-05-22T06:22:50.872Z,10.83
2019-05-22T06:23:50.860Z,10.83
2019-05-22T06:24:50.906Z,10.83
2019-05-22T06:25:50.853Z,10.84
2019-05-22T06:26:50.825Z,10.84
2019-05-22T06:27:50.812Z,10.84
2019-05-22T06:28:50.804Z,10.84
2019-05-22T06:29:50.796Z,10.88
2019-05-22T06:30:50.791Z,10.84
2019-05-22T06:31:50.762Z,10.88
2019-05-22T06:32:50.766Z,10.88
2019-05-22T06:33:50.802Z,10.88
2019-05-22T06:34:50.780Z,10.86
2019-05-22T06:35:50.763Z,10.89
2019-05-22T06:36:50.721Z,10.88
2019-05-22T06:37:50.713Z,10.91
2019-05-22T06:38:50.690Z,10.94
2019-05-22T06:39:50.701Z,10.95
2019-05-22T06:40:50.685Z,10.98
2019-05-22T06:41:50.652Z,10.99
2019-05-22T06:42:50.648Z,10.99
2019-05-22T06:43:50.641Z,11.01
2019-05-22T06:44:50.635Z,10.99
2019-05-22T06:45:50.631Z,11.01
2019-05-22T06:46:50.627Z,11.02
2019-05-22T06:47:50.633Z,11.03
2019-05-22T06:48:50.617Z,11.06
2019-05-22T06:49:50.560Z,11.06
2019-05-22T06:50:50.579Z,11.07
2019-05-22T06:51:50.637Z,11.09
2019-05-22T06:52:50.534Z,11.07
2019-05-22T06:53:50.529Z,11.11
2019-05-22T06:54:50.531Z,11.13
2019-05-22T06:55:50.518Z,11.14
2019-05-22T06:56:50.511Z,11.17
2019-05-22T06:57:50.492Z,11.21
2019-05-22T06:58:50.460Z,11.24
2019-05-22T07:00:10.781Z,11.25
2019-05-22T07:00:51.457Z,11.24
2019-05-22T07:01:50.451Z,11.24
2019-05-22T07:02:50.443Z,11.24
2019-05-22T07:03:50.413Z,11.21
2019-05-22T07:04:50.511Z,11.24
2019-05-22T07:05:50.411Z,11.21
2019-05-22T07:06:50.524Z,11.24
2019-05-22T07:07:50.733Z,11.20
2019-05-22T07:08:50.770Z,11.20
2019-05-22T07:09:50.344Z,11.21
2019-05-22T07:10:50.333Z,11.24
2019-05-22T07:11:50.350Z,11.24
2019-05-22T07:12:51.145Z,11.28
2019-05-22T07:13:50.300Z,11.29
2019-05-22T07:14:50.321Z,11.31
2019-05-22T07:15:50.406Z,11.29
2019-05-22T07:16:50.267Z,11.29
2019-05-22T07:17:50.372Z,11.29
2019-05-22T07:18:50.241Z,11.29
2019-05-22T07:19:50.230Z,11.31
2019-05-22T07:20:50.273Z,11.28
2019-05-22T07:21:50.219Z,11.28
2019-05-22T07:22:50.234Z,11.25
2019-05-22T07:23:50.201Z,11.25
2019-05-22T07:24:50.201Z,11.25
2019-05-22T07:25:50.176Z,11.25
2019-05-22T07:26:50.190Z,11.24
2019-05-22T07:27:50.176Z,11.21
2019-05-22T07:28:50.157Z,11.24
2019-05-22T07:29:50.120Z,11.21
2019-05-22T07:30:50.113Z,11.20
2019-05-22T07:31:50.099Z,11.20
2019-05-22T07:32:50.293Z,11.21
2019-05-22T07:33:50.113Z,11.21
2019-05-22T07:34:50.089Z,11.20
2019-05-22T07:36:08.442Z,11.20
2019-05-22T07:36:51.040Z,11.20
2019-05-22T07:37:50.037Z,11.20
2019-05-22T07:38:50.056Z,11.20
2019-05-22T07:39:50.088Z,11.21
2019-05-22T07:40:51.265Z,11.24
2019-05-22T07:41:50.200Z,11.24
2019-05-22T07:42:50.175Z,11.27
2019-05-22T07:43:49.993Z,11.28
2019-05-22T07:44:49.980Z,11.32
2019-05-22T07:45:49.973Z,11.35
2019-05-22T07:46:49.935Z,11.35
2019-05-22T07:47:49.964Z,11.38
2019-05-22T07:48:49.935Z,11.38
2019-05-22T07:49:49.914Z,11.39
2019-05-22T07:50:49.919Z,11.43
2019-05-22T07:51:57.553Z,11.43
2019-05-22T07:52:50.873Z,11.39
2019-05-22T07:53:49.884Z,11.43
2019-05-22T07:54:49.852Z,11.44
2019-05-22T07:55:49.845Z,11.44
2019-05-22T07:56:49.853Z,11.46
2019-05-22T07:57:49.854Z,11.44
2019-05-22T07:58:49.824Z,11.46
2019-05-22T07:59:49.799Z,11.50
2019-05-22T08:00:49.793Z,11.54
2019-05-22T08:01:49.773Z,11.57
2019-05-22T08:02:49.764Z,11.61
2019-05-22T08:03:49.843Z,11.62
2019-05-22T08:04:49.735Z,11.65
2019-05-22T08:05:49.753Z,11.70
2019-05-22T08:06:49.742Z,11.75
2019-05-22T08:07:49.735Z,11.80
2019-05-22T08:08:49.711Z,11.83
2019-05-22T08:09:49.729Z,11.86
2019-05-22T08:10:49.675Z,11.87
2019-05-22T08:11:49.712Z,11.87
2019-05-22T08:12:49.652Z,11.87
2019-05-22T08:13:49.642Z,11.86
2019-05-22T08:14:49.658Z,11.89
2019-05-22T08:15:49.635Z,11.89
2019-05-22T08:16:49.614Z,11.93
2019-05-22T08:17:49.602Z,11.96
2019-05-22T08:18:49.583Z,11.99
2019-05-22T08:19:49.604Z,12.02
2019-05-22T08:20:49.574Z,12.01
2019-05-22T08:21:49.543Z,12.04
2019-05-22T08:22:49.548Z,12.04
2019-05-22T08:23:49.563Z,12.02
2019-05-22T08:24:49.543Z,12.01
2019-05-22T08:25:49.507Z,12.05
2019-05-22T08:26:54.353Z,12.12
2019-05-22T08:27:50.490Z,12.19
2019-05-22T08:28:49.490Z,12.29
2019-05-22T08:29:49.479Z,12.34
2019-05-22T08:30:49.468Z,12.44
2019-05-22T08:31:49.445Z,12.48
2019-05-22T08:32:49.436Z,12.57
2019-05-22T08:33:49.444Z,12.60
2019-05-22T08:34:49.420Z,12.66
2019-05-22T08:35:49.391Z,12.74
2019-05-22T08:36:49.394Z,12.79
2019-05-22T08:37:49.381Z,12.85
2019-05-22T08:38:49.382Z,12.85
2019-05-22T08:39:49.401Z,12.89
2019-05-22T08:40:49.346Z,12.96
2019-05-22T08:41:49.339Z,12.97
2019-05-22T08:42:49.323Z,12.97
2019-05-22T08:44:13.929Z,13.02
2019-05-22T08:44:50.311Z,13.03
2019-05-22T08:45:49.284Z,13.11
2019-05-22T08:46:49.288Z,13.15
2019-05-22T08:47:49.280Z,13.20
2019-05-22T08:48:49.691Z,13.17
2019-05-22T08:49:49.279Z,13.06
2019-05-22T08:50:49.265Z,12.97
2019-05-22T08:51:49.223Z,12.87
2019-05-22T08:52:49.221Z,12.74
2019-05-22T08:53:49.211Z,12.66
2019-05-22T08:54:49.212Z,12.57
2019-05-22T08:55:49.179Z,12.51
2019-05-22T08:56:49.166Z,12.57
2019-05-22T08:57:49.207Z,12.54
2019-05-22T08:58:49.144Z,12.57
2019-05-22T08:59:49.193Z,12.59
2019-05-22T09:00:49.133Z,12.63
2019-05-22T09:01:49.106Z,12.67
2019-05-22T09:02:49.091Z,12.70
2019-05-22T09:03:49.093Z,12.79
2019-05-22T09:04:49.107Z,12.89
2019-05-22T09:05:49.070Z,12.99
2019-05-22T09:06:49.062Z,13.03
2019-05-22T09:07:49.086Z,13.04
2019-05-22T09:08:49.035Z,13.03
2019-05-22T09:09:49.038Z,13.04
2019-05-22T09:10:49.062Z,13.02
2019-05-22T09:11:49.003Z,12.97
2019-05-22T09:12:48.982Z,12.95
2019-05-22T09:13:48.983Z,12.93
2019-05-22T09:14:48.984Z,12.82
2019-05-22T09:15:48.961Z,12.75
2019-05-22T09:16:48.997Z,12.70
2019-05-22T09:17:48.945Z,12.69
2019-05-22T09:18:48.938Z,12.70
2019-05-22T09:19:48.929Z,12.71
2019-05-22T09:20:49.933Z,12.71
2019-05-22T09:21:48.890Z,12.71
2019-05-22T09:22:48.904Z,12.70
2019-05-22T09:23:48.868Z,12.69
2019-05-22T09:24:48.884Z,12.71
2019-05-22T09:25:48.842Z,12.77
2019-05-22T09:26:48.842Z,12.78
2019-05-22T09:27:48.835Z,12.75
2019-05-22T09:28:48.852Z,12.70
2019-05-22T09:29:48.831Z,12.66
2019-05-22T09:30:48.835Z,12.66
2019-05-22T09:31:48.781Z,12.62
2019-05-22T09:32:48.760Z,12.59
2019-05-22T09:33:48.772Z,12.56
2019-05-22T09:34:48.866Z,12.51
2019-05-22T09:35:48.888Z,12.52
2019-05-22T09:36:48.755Z,12.52
2019-05-22T09:37:48.726Z,12.49
2019-05-22T09:38:52.150Z,12.44
2019-05-22T09:39:48.822Z,12.41
2019-05-22T09:40:48.710Z,12.37
2019-05-22T09:41:48.711Z,12.38
2019-05-22T09:42:48.703Z,12.42
2019-05-22T09:43:48.654Z,12.49
2019-05-22T09:44:48.713Z,12.60
2019-05-22T09:45:48.620Z,12.70
2019-05-22T09:46:48.688Z,12.84
2019-05-22T09:47:48.640Z,12.95
2019-05-22T09:48:48.631Z,13.04
2019-05-22T09:49:48.604Z,13.06
2019-05-22T09:50:48.591Z,13.03
2019-05-22T09:51:48.620Z,12.99
2019-05-22T09:52:57.406Z,12.95
2019-05-22T09:53:49.640Z,12.89
2019-05-22T09:54:48.601Z,12.81
2019-05-22T09:55:48.589Z,12.75
2019-05-22T09:56:48.694Z,12.71
2019-05-22T09:57:48.579Z,12.67
2019-05-22T09:58:48.573Z,12.66
2019-05-22T09:59:48.560Z,12.64
2019-05-22T10:00:48.624Z,12.64
2019-05-22T10:01:48.557Z,12.64
2019-05-22T10:02:48.430Z,12.66
2019-05-22T10:03:48.505Z,12.67
2019-05-22T10:04:48.449Z,12.64
2019-05-22T10:05:48.482Z,12.63
2019-05-22T10:06:48.496Z,12.57
2019-05-22T10:08:00.054Z,12.52
2019-05-22T10:08:49.384Z,12.44
2019-05-22T10:09:48.432Z,12.41
2019-05-22T10:10:48.409Z,12.39
2019-05-22T10:11:48.360Z,12.39
2019-05-22T10:12:48.336Z,12.39
2019-05-22T10:13:48.323Z,12.46
2019-05-22T10:14:48.398Z,12.56
2019-05-22T10:15:48.315Z,12.67
2019-05-22T10:16:48.311Z,12.87
2019-05-22T10:17:48.328Z,13.03
2019-05-22T10:18:52.586Z,13.22
2019-05-22T10:19:49.256Z,13.41
2019-05-22T10:20:48.244Z,13.52
2019-05-22T10:21:48.226Z,13.59
2019-05-22T10:22:48.290Z,13.61
2019-05-22T10:23:48.203Z,13.62
2019-05-22T10:24:50.437Z,13.71
2019-05-22T10:25:48.183Z,13.77
2019-05-22T10:26:48.187Z,13.71
2019-05-22T10:27:48.192Z,13.61
2019-05-22T10:28:48.145Z,13.54
2019-05-22T10:29:48.212Z,13.47
2019-05-22T10:30:48.133Z,13.41
2019-05-22T10:31:48.114Z,13.37
2019-05-22T10:32:48.135Z,13.40
2019-05-22T10:33:51.751Z,13.43
2019-05-22T10:34:48.093Z,13.52
2019-05-22T10:35:48.108Z,13.58
2019-05-22T10:36:48.066Z,13.58
2019-05-22T10:37:48.125Z,13.61
2019-05-22T10:38:48.045Z,13.69
2019-05-22T10:39:48.045Z,13.77
2019-05-22T10:40:48.026Z,13.83
2019-05-22T10:41:48.011Z,13.83
2019-05-22T10:42:48.012Z,13.81
2019-05-22T10:43:47.984Z,13.80
2019-05-22T10:44:48.005Z,13.81
2019-05-22T10:45:47.970Z,13.71
2019-05-22T10:46:47.951Z,13.67
2019-05-22T10:47:47.975Z,13.69
2019-05-22T10:48:47.957Z,13.73
2019-05-22T10:49:47.936Z,13.79
2019-05-22T10:50:47.915Z,13.81
2019-05-22T10:51:47.902Z,13.87
2019-05-22T10:52:53.074Z,13.94
2019-05-22T10:53:48.891Z,14.04
2019-05-22T10:54:47.867Z,14.17
2019-05-22T10:55:47.874Z,14.31
2019-05-22T10:56:47.843Z,14.43
2019-05-22T10:57:47.866Z,14.56
2019-05-22T10:58:47.822Z,14.65
2019-05-22T10:59:47.812Z,14.68
2019-05-22T11:00:47.805Z,14.72
2019-05-22T11:01:47.806Z,14.78
2019-05-22T11:02:47.801Z,14.86
2019-05-22T11:03:47.772Z,14.80
2019-05-22T11:04:47.752Z,14.86
2019-05-22T11:06:05.281Z,14.88
2019-05-22T11:06:48.743Z,14.93
2019-05-22T11:07:47.756Z,15.03
2019-05-22T11:08:47.741Z,15.06
2019-05-22T11:09:47.712Z,15.03
2019-05-22T11:10:47.744Z,14.88
2019-05-22T11:11:47.682Z,14.72
2019-05-22T11:12:47.682Z,14.65
2019-05-22T11:14:00.550Z,14.57
2019-05-22T11:14:48.720Z,14.53
2019-05-22T11:15:47.633Z,14.53
2019-05-22T11:16:47.646Z,14.61
2019-05-22T11:17:47.643Z,14.56
2019-05-22T11:18:47.622Z,14.54
2019-05-22T11:19:47.583Z,14.50
2019-05-22T11:20:47.587Z,14.49
2019-05-22T11:21:47.572Z,14.50
2019-05-22T11:22:47.570Z,14.47
2019-05-22T11:23:52.867Z,14.44
2019-05-22T11:24:48.574Z,14.35
2019-05-22T11:25:47.525Z,14.27
2019-05-22T11:26:47.533Z,14.17
2019-05-22T11:27:47.533Z,14.09
2019-05-22T11:28:48.058Z,14.06
2019-05-22T11:29:47.493Z,14.02
2019-05-22T11:30:47.476Z,13.98
2019-05-22T11:31:47.466Z,13.96
2019-05-22T11:32:47.463Z,13.99
2019-05-22T11:33:47.485Z,14.02
2019-05-22T11:34:47.422Z,14.04
2019-05-22T11:35:47.420Z,14.06
2019-05-22T11:36:47.516Z,14.04
2019-05-22T11:37:47.403Z,14.06
2019-05-22T11:38:47.407Z,14.07
2019-05-22T11:39:47.373Z,14.02
2019-05-22T11:40:47.419Z,14.07
2019-05-22T11:41:47.348Z,14.14
2019-05-22T11:42:47.358Z,14.20
2019-05-22T11:43:47.352Z,14.19
2019-05-22T11:44:47.332Z,14.32
2019-05-22T11:45:47.327Z,14.35
2019-05-22T11:46:47.317Z,14.43
2019-05-22T11:47:47.288Z,14.52
2019-05-22T11:48:47.286Z,14.56
2019-05-22T11:49:47.379Z,14.53
2019-05-22T11:50:47.258Z,14.56
2019-05-22T11:51:47.243Z,14.54
2019-05-22T11:52:47.230Z,14.61
2019-05-22T11:53:47.217Z,14.60
2019-05-22T11:54:47.262Z,14.57
2019-05-22T11:55:47.197Z,14.57
2019-05-22T11:56:47.205Z,14.56
2019-05-22T11:57:47.225Z,14.57
2019-05-22T11:58:47.231Z,14.60
2019-05-22T11:59:47.168Z,14.60
2019-05-22T12:00:47.196Z,14.53
2019-05-22T12:01:47.123Z,14.46
2019-05-22T12:02:47.177Z,14.50
2019-05-22T12:03:47.126Z,14.47
2019-05-22T12:04:48.929Z,14.43
2019-05-22T12:05:47.109Z,14.43
2019-05-22T12:06:47.080Z,14.35
2019-05-22T12:07:47.075Z,14.29
2019-05-22T12:08:47.072Z,14.29
2019-05-22T12:09:47.060Z,14.25
2019-05-22T12:10:47.044Z,14.21
2019-05-22T12:11:47.046Z,14.21
2019-05-22T12:12:47.065Z,14.20
2019-05-22T12:13:47.008Z,14.25
2019-05-22T12:14:46.982Z,14.27
2019-05-22T12:15:46.991Z,14.27
2019-05-22T12:16:46.973Z,14.19
2019-05-22T12:17:46.986Z,14.20
2019-05-22T12:18:46.933Z,14.17
2019-05-22T12:19:46.975Z,14.13
2019-05-22T12:20:46.940Z,14.13
2019-05-22T12:21:46.909Z,14.12
2019-05-22T12:22:46.892Z,14.06
2019-05-22T12:23:46.903Z,13.99
2019-05-22T12:24:46.897Z,13.95
2019-05-22T12:25:46.907Z,13.96
2019-05-22T12:26:46.863Z,13.95
2019-05-22T12:27:46.893Z,13.91
2019-05-22T12:28:46.826Z,13.94
2019-05-22T12:29:46.833Z,13.91
2019-05-22T12:30:46.862Z,13.95
2019-05-22T12:31:46.805Z,13.96
2019-05-22T12:32:46.827Z,13.96
2019-05-22T12:33:46.787Z,14.04
2019-05-22T12:34:49.232Z,14.10
2019-05-22T12:35:46.778Z,14.13
2019-05-22T12:36:50.463Z,14.14
2019-05-22T12:37:46.772Z,14.13
2019-05-22T12:38:46.749Z,14.13
2019-05-22T12:39:46.705Z,14.14
2019-05-22T12:40:46.735Z,14.20
2019-05-22T12:41:46.694Z,14.21
2019-05-22T12:42:46.680Z,14.25
2019-05-22T12:43:46.700Z,14.31
2019-05-22T12:44:46.654Z,14.31
2019-05-22T12:45:46.665Z,14.31
2019-05-22T12:46:46.630Z,14.27
2019-05-22T12:47:46.633Z,14.25
2019-05-22T12:48:46.610Z,14.31
2019-05-22T12:49:46.686Z,14.34
2019-05-22T12:50:46.624Z,14.35
2019-05-22T12:51:46.593Z,14.25
2019-05-22T12:52:46.584Z,14.24